Jack Foster

Scout - Oxford United
17 Jul 2027
Samstag
Verarbeitung

Persönlichkeit

Anpassungsfähigkeit (4) Ehrgeiz (11) Kontroverse (11) Loyalität (16) Druck (3) Professionalität (15) Fairness (4) Temperament (1)

Profil

Trainerstil Demokratisch
Lizenz Kontinentale C
Entschlossenheit 6
Menschenführung 11
Motivation 11
Disziplin 7
Arbeitszufriedenheit
56%
Ermüdung
0%
Rolle Scout
Gehalt 28.8K p/W
Vertrag 14.03.2030

Leistung

Verhalten Gut
Trainingseffektivität
19%
Spielerentwicklung
35%
Verletzungsprävention
35%
Taktische Umsetzung
55%

Letzte Ereignisse

Nahm an einer Scouting-Besprechung teil 7T her
Nahm an einer Scouting-Besprechung teil 14T her
Nahm an einer Scouting-Besprechung teil 21T her
Nahm an einer Scouting-Besprechung teil 28T her
Nahm an einer Scouting-Besprechung teil 35T her
Sprach sich gegen ein Transferziel aus 42T her
Sprach sich gegen ein Transferziel aus 42T her
Nahm an einer Scouting-Besprechung teil 42T her

Aktuell beobachtet

165
Spieler Verein Status Fähigkeit Vertrauen Beobachtet Zuletzt beobachtet Letzte Stimme
Nicolás Barros Schelotto Osasuna Aktiv 125 / 127 40% 3 30.05.2027 -
Lander Astiazarán Real Sociedad Aktiv 108 / 108 40% 2 30.05.2027 -
João Abreu Porto Aktiv 97 / 97 40% 1 30.05.2027 -
Gorka Gorosabel Real Sociedad Aktiv 112 / 107 40% 2 28.05.2027 -
Tiago Freitas Benfica Aktiv 107 / 123 40% 1 28.05.2027 -
Bosun Lawal Stoke City Aktiv 132 / 122 40% 3 27.05.2027 -
Welington Southampton Aktiv 140 / 124 40% 5 27.05.2027 -
Alfie Doughty Millwall Aktiv 130 / 134 40% 7 27.05.2027 -
Jacques Ekomié Wrexham Aktiv 122 / 136 40% 6 26.05.2027 -
Oliver Skipp Leicester City Aktiv 139 / 135 40% 3 26.05.2027 -
Max Bird Birmingham Aktiv 127 / 130 40% 6 26.05.2027 -
Othmane Maamma Watford Aktiv 125 / 128 40% 2 25.05.2027 -
Bazoumana Touré Newcastle United Aktiv 135 / 143 40% 2 25.05.2027 -
Oscar Schwartau Norwich City Aktiv 125 / 130 40% 1 25.05.2027 -
Kamarni Ryan Salford City Aktiv 93 / 96 40% 1 24.05.2027 -
Abraham Paintsil Hasaacas Aktiv 92 / 104 40% 1 24.05.2027 -
Christos Mouzakitis Hull City Aktiv 137 / 141 40% 3 23.05.2027 -
Sascha Britschgi Catanzaro Aktiv 124 / 130 40% 1 23.05.2027 -
Jacob Greaves Ipswich Town Aktiv 144 / 145 40% 13 22.05.2027 -
Jonathan Bland Barnsley Aktiv 98 / 105 40% 2 20.05.2027 -
Luke Baartman Bidvest Wits Aktiv 96 / 108 40% 2 20.05.2027 -
Mfundo Vilakazi Kaizer Chiefs Aktiv 124 / 113 40% 1 20.05.2027 -
Tyrell Malacia Derby County Aktiv 143 / 134 40% 7 19.05.2027 -
Ousmane Diakité West Bromwich Albion Aktiv 119 / 114 40% 4 19.05.2027 -
Toby Collyer West Bromwich Albion Aktiv 133 / 124 40% 1 19.05.2027 -
Sindre Walle Egeli Nottingham Forest Aktiv 127 / 125 40% 2 17.05.2027 -
Amine Moussaoui Angers SCO Aktiv 105 / 97 40% 2 17.05.2027 -
Alphadjo Cissé Pisa Aktiv 127 / 132 40% 1 17.05.2027 -
Shea Lacey Millwall Aktiv 115 / 127 40% 4 16.05.2027 -
André Miranda Porto Aktiv 99 / 106 40% 3 16.05.2027 -
Callum Doyle Wrexham Aktiv 137 / 123 40% 4 13.05.2027 -
Tristan Crama Millwall Aktiv 122 / 119 40% 3 13.05.2027 -
Adam Randell Bristol City Aktiv 136 / 124 40% 5 13.05.2027 -
Aidan Morris Middlesbrough Aktiv 123 / 134 40% 2 12.05.2027 -
Jay Robinson Southampton Aktiv 121 / 131 40% 1 08.05.2027 -
Asanele Bonani Chippa United Aktiv 99 / 89 40% 2 07.05.2027 -
Edoardo Bove Watford Aktiv 129 / 138 40% 5 06.05.2027 -
Lewis Gibson Preston Aktiv 118 / 114 40% 7 06.05.2027 -
Paulo Iago Sporting CP Aktiv 93 / 91 40% 2 04.05.2027 -
James Morris Leyton Orient Aktiv 120 / 124 40% 2 03.05.2027 -
Oumar Camara Vitoria Guimaraes Aktiv 116 / 123 40% 1 02.05.2027 -
Monty Batlhabane Polokwane City Aktiv 92 / 105 40% 2 01.05.2027 -
Luke McNally Bristol City Aktiv 126 / 137 40% 5 30.04.2027 -
Ethan Galbraith Swansea City Aktiv 133 / 139 40% 9 28.04.2027 -
Tariq Lamptey Queens Park Rangers Aktiv 130 / 140 40% 3 28.04.2027 -
Max Johnston Derby County Aktiv 129 / 134 40% 6 27.04.2027 -
Lee Buchanan Sheffield Wednesday Aktiv 130 / 121 40% 3 26.04.2027 -
Jake Batty Bristol Rovers Aktiv 95 / 115 40% 1 26.04.2027 -
Sam Curtis Swindon Town Aktiv 99 / 106 40% 1 26.04.2027 -
Florentino Luís Ipswich Town Aktiv 141 / 148 40% 5 23.04.2027 -
Shea Charles Southampton Aktiv 139 / 143 40% 1 23.04.2027 -
Lucas Da Cunha Como Aktiv 143 / 147 40% 2 21.04.2027 -
Josh Edwards Charlton Athletic Aktiv 121 / 132 40% 2 20.04.2027 -
Trevoh Chalobah Como Aktiv 150 / 150 40% 3 19.04.2027 -
Jordan Beyer Burnley Aktiv 138 / 142 40% 2 19.04.2027 -
Lucas Bergvall Tottenham Aktiv 152 / 144 40% 2 17.04.2027 -
Martim Cunha Porto Aktiv 101 / 111 40% 1 16.04.2027 -
Joel McGregor Swindon Town Aktiv 92 / 88 40% 1 16.04.2027 -
Abubakar Garba Nasarawa United Aktiv 84 / 84 40% 1 16.04.2027 -
Nobel Mendy Hull City Aktiv 126 / 140 40% 5 14.04.2027 -
Neco Williams Nottingham Forest Aktiv 139 / 139 40% 6 11.04.2027 -
José Córdoba Norwich City Aktiv 118 / 114 40% 2 11.04.2027 -
Terry Devlin Portsmouth Aktiv 116 / 122 40% 1 11.04.2027 Mehr Infos nötig
Nestory Irankunda Watford Aktiv 122 / 131 40% 1 10.04.2027 -
Miguel Figueiredo Benfica Aktiv 109 / 115 40% 1 10.04.2027 -
Caleb Yirenkyi Coventry City Aktiv 140 / 136 40% 1 09.04.2027 -
Ronwen Khune Black Aces Aktiv 99 / 106 40% 1 09.04.2027 -
Enzo Barrenechea Burnley Aktiv 152 / 157 40% 4 07.04.2027 -
Harry Clarke Preston Aktiv 121 / 121 40% 3 06.04.2027 -
Milan van Ewijk Coventry City Aktiv 138 / 131 40% 3 02.04.2027 -
Imrân Louza Watford Aktiv 133 / 124 40% 3 31.03.2027 -
Habib Diarra Sunderland Aktiv 137 / 150 40% 3 31.03.2027 -
Ramón Terrats Getafe Aktiv 141 / 133 40% 1 31.03.2027 -
Victor Torp Coventry City Aktiv 122 / 135 40% 2 28.03.2027 -
Ben Nelson Leicester City Aktiv 128 / 142 40% 2 24.03.2027 -
Brooke Norton-Cuffy Hull City Aktiv 137 / 133 40% 2 24.03.2027 -
Kristoffer Lund Birmingham Aktiv 125 / 137 40% 2 23.03.2027 -
Caolan Boyd-Munce Wycombe Wanderers Aktiv 115 / 125 40% 1 21.03.2027 -
Tim Iroegbunam Hull City Aktiv 138 / 139 40% 6 09.03.2027 -
Max Conway Bolton Wanderers Aktiv 125 / 128 40% 3 08.03.2027 -
Anel Ahmedhodžić Burnley Aktiv 129 / 124 40% 2 02.03.2027 -
Lewis Bate Stockport County Aktiv 126 / 112 40% 1 23.02.2027 -
Teden Mengi Luton Town Aktiv 123 / 123 40% 1 21.02.2027 -
Dara O'Shea Ipswich Town Aktiv 138 / 128 40% 2 13.02.2027 -
Bobby Thomas Coventry City Aktiv 127 / 124 40% 1 12.02.2027 -
Kayne Ramsay Charlton Athletic Aktiv 134 / 129 40% 2 08.02.2027 -
Christian Krasnodar Aktiv 141 / 147 40% 1 02.02.2027 -
Armando Broja Burnley Aktiv 129 / 141 40% 2 31.12.2026 -
Enzo Le Fée Sunderland Aktiv 146 / 133 40% 2 31.12.2026 -
Tshepang Moremi Orlando Pirates Aktiv 112 / 98 40% 1 28.12.2026 -
Rumarn Burrell Queens Park Rangers Aktiv 130 / 131 40% 1 28.12.2026 -
Alex Robertson Cardiff City Aktiv 126 / 111 40% 1 27.12.2026 -
Dávid Strelec Middlesbrough Aktiv 134 / 140 40% 2 25.12.2026 -
Josh Tymon Swansea City Aktiv 129 / 127 40% 4 25.12.2026 -
Zeidane Inoussa Swansea City Aktiv 118 / 117 40% 1 25.12.2026 -
Ilyas Ansah Hull City Aktiv 124 / 127 40% 4 23.12.2026 -
Jack McGlynn Stoke City Aktiv 126 / 136 40% 1 23.12.2026 -
Finn Azaz Southampton Aktiv 138 / 117 40% 3 22.12.2026 -
Joe Gelhardt Hull City Aktiv 128 / 124 40% 1 22.12.2026 -
Noah Sadiki Sunderland Aktiv 135 / 150 40% 5 20.12.2026 -
Ethan Pye Stockport County Aktiv 113 / 120 40% 1 20.12.2026 -
Richard Koné Queens Park Rangers Aktiv 117 / 116 40% 1 18.12.2026 -
Isaiah Jones Luton Town Aktiv 114 / 122 40% 3 14.12.2026 -
Tommy Conway Middlesbrough Aktiv 125 / 136 40% 1 14.12.2026 -
Nuno Santos Mamelodi Sundowns Aktiv 127 / 129 40% 2 13.12.2026 -
Kelvin Yeboah Minnesota United FC Aktiv 126 / 114 40% 2 12.12.2026 -
Mathias Jørgensen Blackburn Rovers Aktiv 122 / 125 40% 1 07.12.2026 -
Nicolas Madsen Queens Park Rangers Aktiv 122 / 138 40% 1 07.12.2026 -
Hlompho Billiat Free State Stars Aktiv 123 / 113 40% 1 07.12.2026 -
Tyrese Campbell Sheffield United Aktiv 124 / 132 40% 1 05.12.2026 -
Isaac Price West Bromwich Albion Aktiv 131 / 136 40% 1 30.11.2026 -
Lamine Cissé Peterborough United Aktiv 118 / 131 40% 2 29.11.2026 -
Romaine Mundle Sunderland Aktiv 127 / 142 40% 2 28.11.2026 -
El Hadji Malick Diouf Brentford Aktiv 142 / 150 40% 1 28.11.2026 -
Malick Thiaw Newcastle United Aktiv 158 / 164 40% 1 22.11.2026 -
Loum Tchaouna Coventry City Aktiv 141 / 137 40% 1 22.11.2026 -
Julio Enciso Ipswich Town Aktiv 141 / 154 40% 3 18.11.2026 -
Relebohile Mofokeng Orlando Pirates Aktiv 129 / 121 40% 1 18.11.2026 -
Pedro Porro Tottenham Aktiv 148 / 138 40% 2 15.11.2026 -
Kellen Fisher Norwich City Aktiv 128 / 137 40% 1 13.11.2026 -
Elliot Anderson Manchester City Aktiv 157 / 149 40% 1 11.11.2026 -
Harry Pickering Blackburn Rovers Aktiv 110 / 115 40% 1 10.11.2026 -
Nicolò Savona Nottingham Forest Aktiv 135 / 131 40% 1 10.11.2026 -
Liel Abada Charlotte Football Club Aktiv 125 / 120 40% 1 07.11.2026 -
Tom Fellows Southampton Aktiv 136 / 140 40% 1 07.11.2026 -
Bryan Ramírez FC Cincinnati Aktiv 132 / 138 40% 3 04.11.2026 -
Marcus Edwards Burnley Aktiv 144 / 133 40% 1 04.11.2026 -
Koki Saito Queens Park Rangers Aktiv 121 / 115 40% 1 22.10.2026 -
Aaron Connolly Ruch Aktiv 125 / 113 40% 1 22.10.2026 -
Iván Angulo Orlando City Aktiv 131 / 111 40% 1 19.10.2026 -
Mauricio Amaro Atlanta United FC Aktiv 118 / 128 40% 1 17.10.2026 -
Conrad Wallem Aalborg Aktiv 136 / 130 40% 1 14.10.2026 -
Loïc Williams Colorado Rapids Aktiv 112 / 138 40% 1 14.10.2026 -
Elías Báez Atlanta United FC Aktiv 125 / 126 40% 1 12.10.2026 -
Mason Mount Manchester United Aktiv 148 / 160 40% 1 11.10.2026 -
Duncan McGuire Houston Dynamo Aktiv 135 / 112 40% 1 11.10.2026 -
Amin Boudri Los Angeles Football Club Aktiv 127 / 142 40% 1 08.10.2026 -
Jorge Ruvalcaba New York Red Bulls Aktiv 120 / 121 40% 1 08.10.2026 -
Mathias Kvistgaarden Norwich City Aktiv 114 / 114 40% 1 08.10.2026 -
Mateo Silvetti Inter Miami CF Aktiv 118 / 142 40% 1 07.10.2026 -
Raul Gustavo New York City Aktiv 129 / 108 40% 1 06.10.2026 -
Ariath Piol Real Salt Lake Aktiv 98 / 115 40% 1 20.09.2026 -
Jeremiah Okine-Peters Textilschik Aktiv 77 / 80 40% 1 20.09.2026 -
George Brown Sheffield Wednesday Aktiv 92 / 110 40% 2 17.09.2026 -
Donavan Phillip Colorado Rapids Aktiv 86 / 100 40% 2 17.09.2026 -
Andrés Herrera Columbus Crew Aktiv 121 / 122 40% 1 17.09.2026 -
Jordan Lotomba Bloemfontein Celtic Aktiv 131 / 112 40% 1 17.09.2026 -
Camilo Durán Bloemfontein Celtic Aktiv 125 / 121 40% 1 17.09.2026 -
Darren Yapi Colorado Rapids Aktiv 112 / 114 40% 1 17.09.2026 -
Archie Goodwin Charlotte Football Club Aktiv 110 / 105 40% 2 15.09.2026 -
Chineme Chinonso Ikorodu City Aktiv 93 / 104 40% 1 15.09.2026 -
Juan Manuel Sanabria Real Salt Lake Aktiv 115 / 115 40% 1 13.09.2026 -
Riqui Puig LA Galaxy Aktiv 133 / 132 40% 1 13.09.2026 -
Antonio Galeano Remo Stars Aktiv 120 / 127 40% 1 13.09.2026 -
David Da Costa Portland Timbers Aktiv 118 / 115 40% 2 11.09.2026 -
Rui Modesto Vancouver Whitecaps Aktiv 132 / 111 40% 1 11.09.2026 -
Carlos Álvarez Club America Aktiv 135 / 147 40% 1 11.09.2026 -
Jonás Luna Wanderers Aktiv 121 / 127 40% 1 10.09.2026 -
Inti López River Plate Aktiv 98 / 94 40% 1 10.09.2026 -
Norman Bassette Coventry City Aktiv 115 / 122 40% 1 10.09.2026 -
Jocelin Ta Bi Sunderland Aktiv 102 / 126 40% 1 09.09.2026 -
Patrick Yazbek Nashville SC Aktiv 124 / 111 40% 1 08.09.2026 -
Sean Zawadzki Columbus Crew Aktiv 131 / 111 40% 1 07.09.2026 -
Takehiro Tomiyasu Crystal Palace Aktiv 139 / 148 40% 1 07.09.2026 -
Antony Portland Timbers Aktiv 133 / 148 40% 1 07.09.2026 -